createdAt,value
2022-12-11T00:00:22.117Z,64.35
2022-12-11T00:02:49.437Z,61.50
2022-12-11T00:05:16.312Z,69.07
2022-12-11T00:07:43.167Z,68.57
2022-12-11T00:10:09.980Z,68.03
2022-12-11T00:12:36.727Z,68.40
2022-12-11T00:15:03.709Z,64.75
2022-12-11T00:17:30.465Z,64.32
2022-12-11T00:19:57.192Z,64.43
2022-12-11T00:22:23.982Z,62.08
2022-12-11T00:24:51.772Z,54.70
2022-12-11T00:27:18.541Z,62.22
2022-12-11T00:29:45.382Z,56.90
2022-12-11T00:32:12.301Z,52.75
2022-12-11T00:34:39.322Z,42.58
2022-12-11T00:37:06.140Z,55.63
2022-12-11T00:39:32.905Z,58.33
2022-12-11T00:41:59.800Z,71.60
2022-12-11T00:44:26.498Z,61.47
2022-12-11T00:46:53.331Z,40.60
2022-12-11T00:49:20.071Z,57.38
2022-12-11T00:51:46.915Z,42.72
2022-12-11T00:54:13.654Z,68.13
2022-12-11T00:56:40.497Z,68.18
2022-12-11T00:59:07.443Z,70.25
2022-12-11T01:01:34.275Z,60.33
2022-12-11T01:04:01.078Z,63.88
2022-12-11T01:06:28.842Z,46.05
2022-12-11T01:09:14.986Z,55.30
2022-12-11T01:11:43.064Z,42.60
2022-12-11T01:14:11.091Z,48.90
2022-12-11T01:16:38.260Z,57.38
2022-12-11T01:19:05.238Z,73.63
2022-12-11T01:21:32.083Z,60.47
2022-12-11T01:23:59.013Z,41.97
2022-12-11T01:26:25.859Z,78.85
2022-12-11T01:28:52.698Z,47.92
2022-12-11T01:31:22.358Z,26.95
2022-12-11T01:33:49.457Z,62.65
2022-12-11T01:36:20.856Z,44.75
2022-12-11T01:38:49.299Z,74.55
2022-12-11T01:41:17.870Z,60.13
2022-12-11T01:44:07.024Z,59.67
2022-12-11T01:46:36.289Z,65.15
2022-12-11T01:49:07.326Z,65.80
2022-12-11T01:51:39.925Z,25.58
2022-12-11T01:54:11.407Z,56.83
2022-12-11T01:56:41.334Z,60.35
2022-12-11T01:59:09.968Z,53.35
2022-12-11T02:02:03.210Z,40.35
2022-12-11T02:04:31.087Z,55.15
2022-12-11T02:06:57.927Z,56.67
2022-12-11T02:09:29.072Z,59.15
2022-12-11T02:12:07.903Z,53.40
2022-12-11T02:14:46.207Z,57.92
2022-12-11T02:17:18.626Z,37.63
2022-12-11T02:23:07.665Z,55.50
2022-12-11T02:25:42.035Z,71.13
2022-12-11T02:28:36.013Z,58.38
2022-12-11T02:31:10.456Z,55.83
2022-12-11T02:33:45.848Z,65.13
2022-12-11T02:36:16.200Z,69.78
2022-12-11T02:38:46.936Z,51.72
2022-12-11T02:41:13.778Z,55.17
2022-12-11T02:43:42.520Z,52.80
2022-12-11T02:46:10.401Z,17.45
2022-12-11T02:48:37.919Z,63.05
2022-12-11T02:51:06.835Z,65.15
2022-12-11T02:53:37.566Z,57.80
2022-12-11T02:56:20.794Z,54.33
2022-12-11T02:58:58.681Z,47.08
2022-12-11T03:01:27.021Z,51.88
2022-12-11T03:03:55.556Z,59.78
2022-12-11T03:06:27.766Z,34.92
2022-12-11T03:08:54.534Z,55.47
2022-12-11T03:11:21.408Z,57.08
2022-12-11T03:13:48.304Z,50.33
2022-12-11T03:16:39.214Z,60.65
2022-12-11T03:19:13.083Z,52.47
2022-12-11T03:21:58.969Z,62.67
2022-12-11T03:24:35.528Z,41.30
2022-12-11T03:27:14.966Z,49.17
2022-12-11T03:29:55.631Z,54.08
2022-12-11T03:32:27.601Z,41.53
2022-12-11T03:35:03.720Z,50.65
2022-12-11T03:37:35.374Z,53.25
2022-12-11T03:40:09.194Z,54.40
2022-12-11T03:42:37.503Z,32.80
2022-12-11T03:45:06.692Z,25.48
2022-12-11T03:47:34.517Z,45.83
2022-12-11T03:50:04.423Z,50.58
2022-12-11T03:52:32.750Z,26.55
2022-12-11T03:55:01.896Z,42.10
2022-12-11T03:57:31.725Z,40.28
2022-12-11T03:59:58.705Z,32.85
2022-12-11T04:02:25.548Z,40.80
2022-12-11T04:04:52.340Z,35.55
2022-12-11T04:07:19.237Z,21.38
2022-12-11T04:09:46.002Z,22.45
2022-12-11T04:12:12.818Z,31.67
2022-12-11T04:14:57.991Z,30.77
2022-12-11T04:17:43.420Z,25.20
2022-12-11T04:20:28.962Z,29.42
2022-12-11T04:23:15.966Z,22.98
2022-12-11T04:25:42.766Z,26.65
2022-12-11T04:28:09.868Z,27.75
2022-12-11T04:30:36.597Z,32.38
2022-12-11T04:33:04.371Z,26.90
2022-12-11T04:35:31.330Z,24.77
2022-12-11T04:37:58.664Z,25.88
2022-12-11T04:40:25.501Z,24.02
2022-12-11T04:42:52.285Z,25.55
2022-12-11T04:45:19.085Z,18.20
2022-12-11T04:47:45.988Z,22.35
2022-12-11T04:50:14.387Z,20.77
2022-12-11T04:52:41.412Z,28.20
2022-12-11T04:55:09.055Z,28.92
2022-12-11T04:57:36.129Z,29.58
2022-12-11T05:00:05.314Z,14.77
2022-12-11T05:02:34.989Z,25.77
2022-12-11T05:05:03.299Z,25.88
2022-12-11T05:07:30.093Z,28.58
2022-12-11T05:09:56.833Z,27.55
2022-12-11T05:12:23.677Z,26.73
2022-12-11T05:14:54.464Z,20.15
2022-12-11T05:17:22.463Z,29.17
2022-12-11T05:19:50.890Z,27.05
2022-12-11T05:22:19.034Z,21.58
2022-12-11T05:24:46.081Z,27.15
2022-12-11T05:27:12.939Z,27.48
2022-12-11T05:29:39.727Z,28.25
2022-12-11T05:32:06.688Z,29.20
2022-12-11T05:34:33.517Z,27.88
2022-12-11T05:37:00.397Z,11.10
2022-12-11T05:39:27.281Z,27.98
2022-12-11T05:41:54.031Z,28.10
2022-12-11T05:44:20.823Z,29.73
2022-12-11T05:46:47.953Z,28.13
2022-12-11T05:49:17.477Z,27.80
2022-12-11T05:51:46.421Z,25.90
2022-12-11T05:54:13.366Z,31.25
2022-12-11T05:56:40.311Z,30.52
2022-12-11T05:59:07.922Z,29.65
2022-12-11T06:01:38.332Z,27.77
2022-12-11T06:04:06.739Z,30.10
2022-12-11T06:06:34.441Z,31.88
2022-12-11T06:09:02.103Z,34.90
2022-12-11T06:11:30.738Z,32.40
2022-12-11T06:13:58.175Z,33.15
2022-12-11T06:16:25.298Z,30.10
2022-12-11T06:18:57.028Z,31.95
2022-12-11T06:21:30.757Z,31.90
2022-12-11T06:24:02.110Z,33.53
2022-12-11T06:26:29.633Z,33.00
2022-12-11T06:28:56.404Z,34.30
2022-12-11T06:31:23.403Z,32.50
2022-12-11T06:33:50.192Z,32.00
2022-12-11T06:36:19.698Z,28.25
2022-12-11T06:38:47.795Z,37.97
2022-12-11T06:41:15.126Z,33.45
2022-12-11T06:43:43.054Z,37.08
2022-12-11T06:46:15.915Z,37.30
2022-12-11T06:48:43.691Z,35.85
2022-12-11T06:51:13.497Z,37.60
2022-12-11T06:53:41.268Z,38.28
2022-12-11T06:56:11.340Z,39.50
2022-12-11T06:58:38.640Z,37.05
2022-12-11T07:01:17.214Z,28.98
2022-12-11T07:03:44.357Z,38.03
2022-12-11T07:06:11.251Z,20.80
2022-12-11T07:08:38.350Z,40.88
2022-12-11T07:11:06.885Z,38.22
2022-12-11T07:13:34.152Z,37.38
2022-12-11T07:16:02.032Z,31.95
2022-12-11T07:18:28.998Z,30.83
2022-12-11T07:20:59.375Z,26.27
2022-12-11T07:23:28.328Z,36.00
2022-12-11T07:25:56.085Z,33.50
2022-12-11T07:28:23.282Z,36.13
2022-12-11T07:30:50.383Z,33.58
2022-12-11T07:33:17.223Z,36.05
2022-12-11T07:35:44.168Z,35.90
2022-12-11T07:38:10.973Z,34.75
2022-12-11T07:40:37.718Z,39.55
2022-12-11T07:43:04.454Z,29.35
2022-12-11T07:45:31.909Z,29.20
2022-12-11T07:47:59.151Z,11.98
2022-12-11T07:50:26.262Z,10.57
2022-12-11T07:52:53.091Z,29.83
2022-12-11T07:55:19.882Z,24.63
2022-12-11T07:57:46.728Z,10.27
2022-12-11T08:00:13.930Z,29.83
2022-12-11T08:02:40.805Z,32.33
2022-12-11T08:05:08.634Z,32.78
2022-12-11T08:07:36.098Z,35.20
2022-12-11T08:10:04.117Z,32.78
2022-12-11T08:12:31.469Z,35.33
2022-12-11T08:14:58.261Z,31.95
2022-12-11T08:17:30.108Z,29.98
2022-12-11T08:19:58.653Z,31.02
2022-12-11T08:22:25.650Z,34.08
2022-12-11T08:24:52.443Z,19.95
2022-12-11T08:27:19.338Z,32.83
2022-12-11T08:29:47.458Z,27.45
2022-12-11T08:32:16.740Z,27.77
2022-12-11T08:34:44.234Z,25.83
2022-12-11T08:37:11.191Z,26.52
2022-12-11T08:39:38.005Z,23.73
2022-12-11T08:42:05.258Z,12.13
2022-12-11T08:44:32.048Z,23.10
2022-12-11T08:46:59.099Z,24.17
2022-12-11T08:49:27.587Z,19.20
2022-12-11T08:51:57.954Z,19.30
2022-12-11T08:54:24.642Z,26.30
2022-12-11T08:56:57.639Z,26.33
2022-12-11T08:59:25.662Z,23.67
2022-12-11T09:01:52.514Z,26.88
2022-12-11T09:04:19.394Z,24.95
2022-12-11T09:06:46.128Z,33.28
2022-12-11T09:09:12.866Z,29.00
2022-12-11T09:11:39.607Z,32.63
2022-12-11T09:14:08.160Z,31.27
2022-12-11T09:16:38.053Z,31.23
2022-12-11T09:19:07.102Z,28.58
2022-12-11T09:21:34.182Z,33.75
2022-12-11T09:24:01.706Z,32.33
2022-12-11T09:26:30.039Z,31.98
2022-12-11T09:28:57.646Z,29.67
2022-12-11T09:31:27.684Z,29.13
2022-12-11T09:33:57.576Z,28.92
2022-12-11T09:36:25.139Z,32.92
2022-12-11T09:38:52.361Z,36.75
2022-12-11T09:41:22.192Z,31.17
2022-12-11T09:43:59.079Z,35.35
2022-12-11T09:46:33.555Z,30.88
2022-12-11T09:49:03.537Z,33.38
2022-12-11T09:52:01.950Z,31.45
2022-12-11T09:54:28.847Z,31.08
2022-12-11T09:57:10.538Z,30.63
2022-12-11T10:00:05.996Z,29.55
2022-12-11T10:03:01.011Z,34.08
2022-12-11T10:05:35.597Z,29.73
2022-12-11T10:08:40.179Z,29.52
2022-12-11T10:11:42.188Z,30.48
2022-12-11T10:14:36.949Z,33.17
2022-12-11T10:17:12.669Z,33.03
2022-12-11T10:19:41.358Z,29.50
2022-12-11T10:22:26.093Z,28.15
2022-12-11T10:25:11.603Z,28.15
2022-12-11T10:27:40.765Z,26.05
2022-12-11T10:30:15.897Z,27.48
2022-12-11T10:32:54.091Z,28.95
2022-12-11T10:35:30.207Z,29.50
2022-12-11T10:38:19.884Z,27.02
2022-12-11T10:40:55.019Z,25.98
2022-12-11T10:43:34.508Z,24.10
2022-12-11T10:46:01.593Z,26.65
2022-12-11T10:48:28.295Z,27.88
2022-12-11T10:51:04.255Z,26.23
2022-12-11T10:53:32.220Z,27.48
2022-12-11T10:56:00.591Z,25.52
2022-12-11T10:58:33.961Z,27.45
2022-12-11T11:01:06.074Z,23.10
2022-12-11T11:03:33.829Z,23.05
2022-12-11T11:06:15.210Z,24.98
2022-12-11T11:08:47.751Z,24.08
2022-12-11T11:13:50.895Z,19.75
2022-12-11T11:16:21.035Z,24.17
2022-12-11T11:18:54.178Z,21.83
2022-12-11T11:21:23.804Z,24.13
2022-12-11T11:23:53.602Z,23.42
2022-12-11T11:26:22.885Z,25.00
2022-12-11T11:28:52.392Z,22.10
2022-12-11T11:31:20.263Z,26.05
2022-12-11T11:33:52.964Z,22.88
2022-12-11T11:36:27.870Z,22.05
2022-12-11T11:39:08.781Z,26.75
2022-12-11T11:41:57.089Z,22.45
2022-12-11T11:44:31.659Z,20.88
2022-12-11T11:47:14.693Z,22.05
2022-12-11T11:49:57.279Z,20.00
2022-12-11T11:52:47.577Z,22.52
2022-12-11T11:55:25.335Z,22.73
2022-12-11T11:58:05.092Z,17.98
2022-12-11T12:00:33.936Z,22.38
2022-12-11T12:03:13.951Z,20.85
2022-12-11T12:05:49.119Z,21.20
2022-12-11T12:08:40.777Z,18.05
2022-12-11T12:11:28.312Z,15.98
2022-12-11T12:14:43.648Z,22.42
2022-12-11T12:17:09.395Z,24.35
2022-12-11T12:19:55.201Z,23.38
2022-12-11T12:22:30.788Z,19.63
2022-12-11T12:25:03.313Z,19.98
2022-12-11T12:30:23.315Z,19.88
2022-12-11T12:32:59.528Z,13.07
2022-12-11T12:35:38.558Z,22.95
2022-12-11T12:38:28.285Z,19.75
2022-12-11T12:41:15.608Z,17.88
2022-12-11T12:43:48.267Z,18.70
2022-12-11T12:46:28.911Z,24.17
2022-12-11T12:48:58.900Z,23.70
2022-12-11T12:51:26.684Z,21.60
2022-12-11T12:54:00.337Z,23.25
2022-12-11T12:56:31.480Z,24.92
2022-12-11T12:58:58.426Z,22.13
2022-12-11T13:01:28.270Z,29.17
2022-12-11T13:04:03.727Z,12.77
2022-12-11T13:06:37.799Z,20.45
2022-12-11T13:09:25.797Z,23.30
2022-12-11T13:12:00.154Z,14.93
2022-12-11T13:14:32.673Z,21.83
2022-12-11T13:20:15.261Z,24.60
2022-12-11T13:23:14.003Z,26.45
2022-12-11T13:25:53.198Z,28.90
2022-12-11T13:28:22.179Z,26.27
2022-12-11T13:31:05.148Z,26.42
2022-12-11T13:33:32.994Z,29.05
2022-12-11T13:36:28.581Z,29.77
2022-12-11T13:39:06.330Z,27.50
2022-12-11T13:41:36.747Z,32.60
2022-12-11T13:44:05.295Z,30.45
2022-12-11T13:46:35.565Z,29.67
2022-12-11T13:49:05.091Z,26.42
2022-12-11T13:51:35.317Z,30.02
2022-12-11T13:54:17.817Z,30.17
2022-12-11T13:56:58.571Z,29.08
2022-12-11T13:59:37.187Z,30.85
2022-12-11T14:02:11.545Z,31.92
2022-12-11T14:04:38.708Z,32.03
2022-12-11T14:07:08.881Z,29.85
2022-12-11T14:09:43.900Z,29.88
2022-12-11T14:12:20.154Z,29.52
2022-12-11T14:14:55.165Z,31.88
2022-12-11T14:17:27.947Z,31.20
2022-12-11T14:19:57.900Z,34.67
2022-12-11T14:22:27.596Z,29.38
2022-12-11T14:25:00.008Z,28.65
2022-12-11T14:27:27.668Z,27.30
2022-12-11T14:29:55.331Z,36.42
2022-12-11T14:32:44.767Z,31.13
2022-12-11T14:35:26.839Z,32.40
2022-12-11T14:37:54.769Z,32.95
2022-12-11T14:40:28.100Z,30.63
2022-12-11T14:43:01.574Z,23.00
2022-12-11T14:45:34.844Z,32.95
2022-12-11T14:48:05.934Z,29.20
2022-12-11T14:50:40.970Z,30.13
2022-12-11T14:53:15.546Z,30.73
2022-12-11T14:55:42.685Z,29.77
2022-12-11T14:58:22.645Z,29.85
2022-12-11T15:01:06.229Z,30.52
2022-12-11T15:03:35.997Z,31.95
2022-12-11T15:06:21.112Z,32.15
2022-12-11T15:08:47.910Z,31.90
2022-12-11T15:11:17.537Z,34.78
2022-12-11T15:13:59.617Z,32.60
2022-12-11T15:16:31.282Z,34.05
2022-12-11T15:18:58.897Z,34.00
2022-12-11T15:21:31.301Z,32.85
2022-12-11T15:24:00.534Z,32.65
2022-12-11T15:26:45.181Z,32.65
2022-12-11T15:29:32.269Z,31.33
2022-12-11T15:32:09.207Z,32.50
2022-12-11T15:34:49.322Z,30.20
2022-12-11T15:37:31.167Z,28.70
2022-12-11T15:40:00.170Z,30.63
2022-12-11T15:42:31.756Z,32.58
2022-12-11T15:44:59.886Z,36.00
2022-12-11T15:47:29.228Z,33.88
2022-12-11T15:50:02.771Z,33.78
2022-12-11T15:52:29.575Z,29.33
2022-12-11T15:54:56.413Z,34.55
2022-12-11T15:57:24.637Z,30.80
2022-12-11T15:59:54.042Z,28.73
2022-12-11T16:02:20.846Z,28.40
2022-12-11T16:04:47.627Z,32.10
2022-12-11T16:07:20.709Z,30.45
2022-12-11T16:09:47.702Z,35.22
2022-12-11T16:12:15.273Z,34.72
2022-12-11T16:14:43.136Z,29.45
2022-12-11T16:17:11.361Z,26.60
2022-12-11T16:19:38.512Z,32.95
2022-12-11T16:22:06.993Z,29.30
2022-12-11T16:24:33.944Z,27.17
2022-12-11T16:27:00.900Z,28.38
2022-12-11T16:29:28.444Z,31.00
2022-12-11T16:31:55.394Z,35.20
2022-12-11T16:34:28.484Z,31.65
2022-12-11T16:36:59.314Z,33.22
2022-12-11T16:39:26.549Z,33.22
2022-12-11T16:41:53.459Z,31.65
2022-12-11T16:44:21.737Z,32.25
2022-12-11T16:46:48.722Z,28.15
2022-12-11T16:49:16.343Z,32.17
2022-12-11T16:51:43.294Z,31.02
2022-12-11T16:54:11.167Z,28.88
2022-12-11T16:56:38.662Z,29.63
2022-12-11T16:59:06.392Z,27.35
2022-12-11T17:01:34.475Z,29.23
2022-12-11T17:04:01.342Z,27.80
2022-12-11T17:06:29.467Z,29.52
2022-12-11T17:08:56.271Z,26.65
2022-12-11T17:11:24.890Z,28.23
2022-12-11T17:13:59.670Z,28.10
2022-12-11T17:16:30.313Z,28.73
2022-12-11T17:18:58.223Z,26.85
2022-12-11T17:21:25.011Z,26.55
2022-12-11T17:23:51.957Z,26.33
2022-12-11T17:26:20.227Z,30.02
2022-12-11T17:28:48.460Z,26.33
2022-12-11T17:31:19.290Z,26.13
2022-12-11T17:33:47.035Z,26.23
2022-12-11T17:36:19.178Z,24.70
2022-12-11T17:38:45.889Z,26.05
2022-12-11T17:41:20.327Z,26.42
2022-12-11T17:43:49.191Z,28.02
2022-12-11T17:46:16.206Z,27.35
2022-12-11T17:48:43.069Z,26.00
2022-12-11T17:51:12.726Z,23.90
2022-12-11T17:53:40.155Z,25.50
2022-12-11T17:56:08.641Z,31.73
2022-12-11T17:58:35.714Z,29.80
2022-12-11T18:01:08.087Z,26.77
2022-12-11T18:03:35.333Z,29.00
2022-12-11T18:06:08.735Z,23.92
2022-12-11T18:08:35.829Z,26.02
2022-12-11T18:11:08.462Z,27.70
2022-12-11T18:13:36.176Z,27.08
2022-12-11T18:16:10.321Z,27.67
2022-12-11T18:18:37.491Z,21.48
2022-12-11T18:21:04.646Z,20.15
2022-12-11T18:23:31.644Z,22.13
2022-12-11T18:25:58.530Z,24.20
2022-12-11T18:28:25.432Z,23.40
2022-12-11T18:30:52.371Z,21.90
2022-12-11T18:33:19.161Z,20.35
2022-12-11T18:35:46.059Z,23.65
2022-12-11T18:38:12.895Z,20.77
2022-12-11T18:40:39.627Z,19.80
2022-12-11T18:43:06.329Z,21.65
2022-12-11T18:45:33.321Z,22.70
2022-12-11T18:48:00.115Z,19.33
2022-12-11T18:50:27.009Z,18.88
2022-12-11T18:52:54.685Z,17.88
2022-12-11T18:55:21.619Z,22.20
2022-12-11T18:57:48.716Z,21.65
2022-12-11T19:00:16.762Z,17.33
2022-12-11T19:02:43.652Z,18.27
2022-12-11T19:05:10.989Z,19.33
2022-12-11T19:07:38.084Z,21.25
2022-12-11T19:10:05.808Z,18.45
2022-12-11T19:12:32.485Z,17.20
2022-12-11T19:14:59.276Z,19.10
2022-12-11T19:17:28.526Z,17.95
2022-12-11T19:19:55.380Z,16.73
2022-12-11T19:22:22.198Z,19.42
2022-12-11T19:24:49.107Z,20.77
2022-12-11T19:27:15.908Z,18.20
2022-12-11T19:29:42.842Z,18.52
2022-12-11T19:32:09.737Z,20.20
2022-12-11T19:34:38.528Z,17.58
2022-12-11T19:37:05.572Z,17.63
2022-12-11T19:39:32.721Z,18.70
2022-12-11T19:41:59.905Z,17.52
2022-12-11T19:44:26.839Z,18.52
2022-12-11T19:46:54.016Z,20.38
2022-12-11T19:49:20.923Z,20.33
2022-12-11T19:51:47.857Z,18.15
2022-12-11T19:54:16.809Z,19.65
2022-12-11T19:56:44.477Z,20.73
2022-12-11T19:59:15.557Z,22.55
2022-12-11T20:01:43.167Z,23.52
2022-12-11T20:04:12.219Z,21.00
2022-12-11T20:06:43.098Z,26.67
2022-12-11T20:09:12.102Z,25.73
2022-12-11T20:11:40.725Z,24.33
2022-12-11T20:14:07.772Z,27.63
2022-12-11T20:17:02.147Z,22.08
2022-12-11T20:19:21.798Z,23.80
2022-12-11T20:21:48.526Z,28.45
2022-12-11T20:24:15.274Z,34.45
2022-12-11T20:26:43.185Z,27.00
2022-12-11T20:29:09.925Z,24.75
2022-12-11T20:31:37.394Z,20.35
2022-12-11T20:34:07.400Z,18.50
2022-12-11T20:36:35.267Z,21.58
2022-12-11T20:39:02.118Z,32.17
2022-12-11T20:41:29.462Z,29.05
2022-12-11T20:43:56.332Z,25.70
2022-12-11T20:46:25.235Z,19.73
2022-12-11T20:48:53.218Z,24.67
2022-12-11T20:51:25.847Z,22.15
2022-12-11T20:53:58.855Z,20.58
2022-12-11T20:56:29.738Z,18.92
2022-12-11T20:58:57.496Z,19.45
2022-12-11T21:01:25.698Z,21.85
2022-12-11T21:03:53.551Z,18.88
2022-12-11T21:06:23.645Z,22.90
2022-12-11T21:08:50.436Z,24.73
2022-12-11T21:11:17.431Z,22.17
2022-12-11T21:13:44.480Z,20.80
2022-12-11T21:16:11.884Z,25.60
2022-12-11T21:18:41.619Z,21.73
2022-12-11T21:21:08.349Z,23.00
2022-12-11T21:23:35.128Z,20.13
2022-12-11T21:26:03.325Z,22.20
2022-12-11T21:28:35.182Z,21.02
2022-12-11T21:31:05.959Z,20.30
2022-12-11T21:33:33.458Z,23.10
2022-12-11T21:36:01.274Z,22.35
2022-12-11T21:38:28.830Z,24.45
2022-12-11T21:40:56.206Z,21.83
2022-12-11T21:43:23.851Z,19.20
2022-12-11T21:46:07.034Z,18.55
2022-12-11T21:48:34.036Z,19.60
2022-12-11T21:51:15.306Z,19.25
2022-12-11T21:53:42.597Z,20.13
2022-12-11T21:56:12.674Z,19.40
2022-12-11T21:58:41.066Z,17.45
2022-12-11T22:01:15.368Z,18.02
2022-12-11T22:03:42.203Z,17.60
2022-12-11T22:06:09.449Z,19.15
2022-12-11T22:08:36.207Z,16.75
2022-12-11T22:11:03.150Z,18.92
2022-12-11T22:13:29.994Z,17.00
2022-12-11T22:15:56.941Z,19.30
2022-12-11T22:18:27.061Z,18.10
2022-12-11T22:20:58.397Z,17.38
2022-12-11T22:23:25.565Z,23.55
2022-12-11T22:25:53.685Z,17.67
2022-12-11T22:28:20.628Z,18.75
2022-12-11T22:30:48.173Z,18.02
2022-12-11T22:33:15.462Z,18.63
2022-12-11T22:35:42.385Z,19.25
2022-12-11T22:38:09.279Z,17.67
2022-12-11T22:40:40.790Z,19.15
2022-12-11T22:43:07.775Z,19.17
2022-12-11T22:45:39.816Z,17.90
2022-12-11T22:48:10.421Z,19.98
2022-12-11T22:50:38.574Z,19.63
2022-12-11T22:53:06.155Z,21.25
2022-12-11T22:55:33.000Z,18.33
2022-12-11T22:58:00.197Z,18.50
2022-12-11T23:00:27.042Z,18.88
2022-12-11T23:02:53.944Z,17.17
2022-12-11T23:05:20.879Z,18.33
2022-12-11T23:07:47.857Z,21.40
2022-12-11T23:10:14.822Z,19.17
2022-12-11T23:12:41.667Z,18.05
2022-12-11T23:15:09.239Z,17.10
2022-12-11T23:17:36.323Z,20.33
2022-12-11T23:20:05.788Z,19.25
2022-12-11T23:22:33.132Z,17.50
2022-12-11T23:25:00.230Z,17.20
2022-12-11T23:27:27.073Z,17.25
2022-12-11T23:29:54.955Z,19.70
2022-12-11T23:32:22.602Z,21.90
2022-12-11T23:34:49.344Z,19.45
2022-12-11T23:37:16.188Z,18.75
2022-12-11T23:39:42.991Z,19.27
2022-12-11T23:42:09.719Z,20.48
2022-12-11T23:44:36.459Z,21.27
2022-12-11T23:47:03.413Z,20.38
2022-12-11T23:49:30.246Z,23.13
2022-12-11T23:51:57.126Z,18.95
2022-12-11T23:54:23.972Z,18.90
2022-12-11T23:56:51.722Z,19.40
2022-12-11T23:59:18.487Z,20.40
